sensor_id;sensor_type;location;lat;lon;timestamp;temperature;humidity
15160;DHT22;7680;48.800;9.680;2023-04-03T00:02:07;3.80;99.90
15160;DHT22;7680;48.800;9.680;2023-04-03T00:04:40;3.90;99.90
15160;DHT22;7680;48.800;9.680;2023-04-03T00:07:15;3.70;99.90
15160;DHT22;7680;48.800;9.680;2023-04-03T00:09:48;3.70;99.90
15160;DHT22;7680;48.800;9.680;2023-04-03T00:12:21;3.70;99.90
15160;DHT22;7680;48.800;9.680;2023-04-03T00:14:54;3.60;99.90
15160;DHT22;7680;48.800;9.680;2023-04-03T00:17:27;3.60;99.90
15160;DHT22;7680;48.800;9.680;2023-04-03T00:20:00;3.60;99.90
15160;DHT22;7680;48.800;9.680;2023-04-03T00:22:35;3.60;99.90
15160;DHT22;7680;48.800;9.680;2023-04-03T00:25:08;3.70;99.90
15160;DHT22;7680;48.800;9.680;2023-04-03T00:27:41;3.60;99.90
15160;DHT22;7680;48.800;9.680;2023-04-03T00:30:16;3.60;99.90
15160;DHT22;7680;48.800;9.680;2023-04-03T00:32:51;3.60;99.90
15160;DHT22;7680;48.800;9.680;2023-04-03T00:35:25;3.50;99.90
15160;DHT22;7680;48.800;9.680;2023-04-03T00:37:59;3.50;99.90
15160;DHT22;7680;48.800;9.680;2023-04-03T00:40:35;3.50;99.90
15160;DHT22;7680;48.800;9.680;2023-04-03T00:43:12;3.50;99.90
15160;DHT22;7680;48.800;9.680;2023-04-03T00:45:47;3.50;99.90
15160;DHT22;7680;48.800;9.680;2023-04-03T00:48:24;3.50;99.90
15160;DHT22;7680;48.800;9.680;2023-04-03T00:50:59;3.50;99.90
15160;DHT22;7680;48.800;9.680;2023-04-03T00:53:39;3.50;99.90
15160;DHT22;7680;48.800;9.680;2023-04-03T00:56:15;3.60;99.90
15160;DHT22;7680;48.800;9.680;2023-04-03T00:58:52;3.50;99.90
15160;DHT22;7680;48.800;9.680;2023-04-03T01:01:29;3.50;99.90
15160;DHT22;7680;48.800;9.680;2023-04-03T01:04:04;3.50;99.90
15160;DHT22;7680;48.800;9.680;2023-04-03T01:06:38;3.50;99.90
15160;DHT22;7680;48.800;9.680;2023-04-03T01:09:12;3.50;99.90
15160;DHT22;7680;48.800;9.680;2023-04-03T01:11:45;3.50;99.90
15160;DHT22;7680;48.800;9.680;2023-04-03T01:14:18;3.50;99.90
15160;DHT22;7680;48.800;9.680;2023-04-03T01:16:52;3.50;99.90
15160;DHT22;7680;48.800;9.680;2023-04-03T01:19:26;3.40;99.90
15160;DHT22;7680;48.800;9.680;2023-04-03T01:22:10;3.40;99.90
15160;DHT22;7680;48.800;9.680;2023-04-03T01:24:51;3.40;99.90
15160;DHT22;7680;48.800;9.680;2023-04-03T01:27:25;3.30;99.90
15160;DHT22;7680;48.800;9.680;2023-04-03T01:29:58;3.30;99.90
15160;DHT22;7680;48.800;9.680;2023-04-03T01:32:33;3.30;99.90
15160;DHT22;7680;48.800;9.680;2023-04-03T01:35:07;3.30;99.90
15160;DHT22;7680;48.800;9.680;2023-04-03T01:37:41;3.30;99.90
15160;DHT22;7680;48.800;9.680;2023-04-03T01:40:14;3.30;99.90
15160;DHT22;7680;48.800;9.680;2023-04-03T01:42:47;3.30;99.90
15160;DHT22;7680;48.800;9.680;2023-04-03T01:45:20;3.20;99.90
15160;DHT22;7680;48.800;9.680;2023-04-03T01:47:54;3.30;99.90
15160;DHT22;7680;48.800;9.680;2023-04-03T01:50:27;3.30;99.90
15160;DHT22;7680;48.800;9.680;2023-04-03T01:53:00;3.30;99.90
15160;DHT22;7680;48.800;9.680;2023-04-03T01:55:33;3.20;99.90
15160;DHT22;7680;48.800;9.680;2023-04-03T01:58:06;3.20;99.90
15160;DHT22;7680;48.800;9.680;2023-04-03T02:00:39;3.20;99.90
15160;DHT22;7680;48.800;9.680;2023-04-03T02:03:14;3.20;99.90
15160;DHT22;7680;48.800;9.680;2023-04-03T02:05:47;3.20;99.90
15160;DHT22;7680;48.800;9.680;2023-04-03T02:08:20;3.30;99.90
15160;DHT22;7680;48.800;9.680;2023-04-03T02:10:53;3.30;99.90
15160;DHT22;7680;48.800;9.680;2023-04-03T02:13:26;3.30;99.90
15160;DHT22;7680;48.800;9.680;2023-04-03T02:16:06;3.40;99.90
15160;DHT22;7680;48.800;9.680;2023-04-03T02:18:41;3.30;99.90
15160;DHT22;7680;48.800;9.680;2023-04-03T02:21:14;3.30;99.90
15160;DHT22;7680;48.800;9.680;2023-04-03T02:23:47;3.30;99.90
15160;DHT22;7680;48.800;9.680;2023-04-03T02:26:20;3.40;99.90
15160;DHT22;7680;48.800;9.680;2023-04-03T02:28:53;3.40;99.90
15160;DHT22;7680;48.800;9.680;2023-04-03T02:31:26;3.40;99.90
15160;DHT22;7680;48.800;9.680;2023-04-03T02:34:00;3.50;99.90
15160;DHT22;7680;48.800;9.680;2023-04-03T02:36:33;3.50;99.90
15160;DHT22;7680;48.800;9.680;2023-04-03T02:39:06;3.50;99.90
15160;DHT22;7680;48.800;9.680;2023-04-03T02:41:39;3.50;99.90
15160;DHT22;7680;48.800;9.680;2023-04-03T02:44:13;3.50;99.90
15160;DHT22;7680;48.800;9.680;2023-04-03T02:46:46;3.50;99.90
15160;DHT22;7680;48.800;9.680;2023-04-03T02:49:20;3.50;99.90
15160;DHT22;7680;48.800;9.680;2023-04-03T02:51:53;3.50;99.90
15160;DHT22;7680;48.800;9.680;2023-04-03T02:54:26;3.60;99.90
15160;DHT22;7680;48.800;9.680;2023-04-03T02:57:02;3.60;99.90
15160;DHT22;7680;48.800;9.680;2023-04-03T02:59:35;3.60;99.90
15160;DHT22;7680;48.800;9.680;2023-04-03T03:02:08;3.50;99.90
15160;DHT22;7680;48.800;9.680;2023-04-03T03:04:42;3.50;99.90
15160;DHT22;7680;48.800;9.680;2023-04-03T03:07:15;3.60;99.90
15160;DHT22;7680;48.800;9.680;2023-04-03T03:09:48;3.60;99.90
15160;DHT22;7680;48.800;9.680;2023-04-03T03:12:21;3.60;99.90
15160;DHT22;7680;48.800;9.680;2023-04-03T03:14:55;3.70;99.90
15160;DHT22;7680;48.800;9.680;2023-04-03T03:17:28;3.70;99.90
15160;DHT22;7680;48.800;9.680;2023-04-03T03:20:03;3.70;99.90
15160;DHT22;7680;48.800;9.680;2023-04-03T03:22:37;3.60;99.90
15160;DHT22;7680;48.800;9.680;2023-04-03T03:25:10;3.70;99.90
15160;DHT22;7680;48.800;9.680;2023-04-03T03:27:43;3.60;99.90
15160;DHT22;7680;48.800;9.680;2023-04-03T03:30:17;3.60;99.90
15160;DHT22;7680;48.800;9.680;2023-04-03T03:32:50;3.60;99.90
15160;DHT22;7680;48.800;9.680;2023-04-03T03:35:24;3.60;99.90
15160;DHT22;7680;48.800;9.680;2023-04-03T03:37:57;3.50;99.90
15160;DHT22;7680;48.800;9.680;2023-04-03T03:40:31;3.60;99.90
15160;DHT22;7680;48.800;9.680;2023-04-03T03:43:04;3.50;99.90
15160;DHT22;7680;48.800;9.680;2023-04-03T03:45:36;3.60;99.90
15160;DHT22;7680;48.800;9.680;2023-04-03T03:48:10;3.50;99.90
15160;DHT22;7680;48.800;9.680;2023-04-03T03:50:44;3.50;99.90
15160;DHT22;7680;48.800;9.680;2023-04-03T03:53:17;3.60;99.90
15160;DHT22;7680;48.800;9.680;2023-04-03T03:55:50;3.60;99.90
15160;DHT22;7680;48.800;9.680;2023-04-03T03:58:23;3.60;99.90
15160;DHT22;7680;48.800;9.680;2023-04-03T04:00:57;3.70;99.90
15160;DHT22;7680;48.800;9.680;2023-04-03T04:03:33;3.60;99.90
15160;DHT22;7680;48.800;9.680;2023-04-03T04:06:08;3.60;99.90
15160;DHT22;7680;48.800;9.680;2023-04-03T04:08:41;3.60;99.90
15160;DHT22;7680;48.800;9.680;2023-04-03T04:11:14;3.50;99.90
15160;DHT22;7680;48.800;9.680;2023-04-03T04:13:47;3.50;99.90
15160;DHT22;7680;48.800;9.680;2023-04-03T04:16:20;3.50;99.90
15160;DHT22;7680;48.800;9.680;2023-04-03T04:18:53;3.50;99.90
15160;DHT22;7680;48.800;9.680;2023-04-03T04:21:27;3.50;99.90
15160;DHT22;7680;48.800;9.680;2023-04-03T04:24:00;3.50;99.90
15160;DHT22;7680;48.800;9.680;2023-04-03T04:26:34;3.40;99.90
15160;DHT22;7680;48.800;9.680;2023-04-03T04:29:08;3.40;99.90
15160;DHT22;7680;48.800;9.680;2023-04-03T04:31:41;3.40;99.90
15160;DHT22;7680;48.800;9.680;2023-04-03T04:34:14;3.40;99.90
15160;DHT22;7680;48.800;9.680;2023-04-03T04:36:49;3.40;99.90
15160;DHT22;7680;48.800;9.680;2023-04-03T04:39:22;3.50;99.90
15160;DHT22;7680;48.800;9.680;2023-04-03T04:41:55;3.50;99.90
15160;DHT22;7680;48.800;9.680;2023-04-03T04:44:28;3.50;99.90
15160;DHT22;7680;48.800;9.680;2023-04-03T04:47:01;3.50;99.90
15160;DHT22;7680;48.800;9.680;2023-04-03T04:49:34;3.40;99.90
15160;DHT22;7680;48.800;9.680;2023-04-03T04:52:08;3.40;99.90
15160;DHT22;7680;48.800;9.680;2023-04-03T04:54:41;3.40;99.90
15160;DHT22;7680;48.800;9.680;2023-04-03T04:57:15;3.40;99.90
15160;DHT22;7680;48.800;9.680;2023-04-03T04:59:48;3.30;99.90
15160;DHT22;7680;48.800;9.680;2023-04-03T05:02:21;3.20;99.90
15160;DHT22;7680;48.800;9.680;2023-04-03T05:04:55;3.10;99.90
15160;DHT22;7680;48.800;9.680;2023-04-03T05:07:29;3.10;99.90
15160;DHT22;7680;48.800;9.680;2023-04-03T05:10:03;3.00;99.90
15160;DHT22;7680;48.800;9.680;2023-04-03T05:12:37;2.90;99.90
15160;DHT22;7680;48.800;9.680;2023-04-03T05:15:10;2.90;99.90
15160;DHT22;7680;48.800;9.680;2023-04-03T05:17:43;2.90;99.90
15160;DHT22;7680;48.800;9.680;2023-04-03T05:20:17;2.90;99.90
15160;DHT22;7680;48.800;9.680;2023-04-03T05:22:51;2.80;99.90
15160;DHT22;7680;48.800;9.680;2023-04-03T05:25:24;2.80;99.90
15160;DHT22;7680;48.800;9.680;2023-04-03T05:27:58;2.70;99.90
15160;DHT22;7680;48.800;9.680;2023-04-03T05:30:31;2.70;99.90
15160;DHT22;7680;48.800;9.680;2023-04-03T05:33:04;2.70;99.90
15160;DHT22;7680;48.800;9.680;2023-04-03T05:35:37;2.70;99.90
15160;DHT22;7680;48.800;9.680;2023-04-03T05:38:14;2.80;99.90
15160;DHT22;7680;48.800;9.680;2023-04-03T05:40:48;2.90;99.90
15160;DHT22;7680;48.800;9.680;2023-04-03T05:43:21;2.80;99.90
15160;DHT22;7680;48.800;9.680;2023-04-03T05:45:54;2.80;99.90
15160;DHT22;7680;48.800;9.680;2023-04-03T05:48:27;2.90;99.90
15160;DHT22;7680;48.800;9.680;2023-04-03T05:51:00;3.00;99.90
15160;DHT22;7680;48.800;9.680;2023-04-03T05:53:36;3.00;99.90
15160;DHT22;7680;48.800;9.680;2023-04-03T05:56:09;3.10;99.90
15160;DHT22;7680;48.800;9.680;2023-04-03T05:58:42;3.10;99.90
15160;DHT22;7680;48.800;9.680;2023-04-03T06:01:15;3.10;99.90
15160;DHT22;7680;48.800;9.680;2023-04-03T06:03:48;3.20;99.90
15160;DHT22;7680;48.800;9.680;2023-04-03T06:06:21;3.20;99.90
15160;DHT22;7680;48.800;9.680;2023-04-03T06:08:56;3.30;99.90
15160;DHT22;7680;48.800;9.680;2023-04-03T06:11:30;3.40;99.90
15160;DHT22;7680;48.800;9.680;2023-04-03T06:14:03;3.50;99.90
15160;DHT22;7680;48.800;9.680;2023-04-03T06:16:36;3.50;99.90
15160;DHT22;7680;48.800;9.680;2023-04-03T06:19:11;3.50;99.90
15160;DHT22;7680;48.800;9.680;2023-04-03T06:21:44;3.50;99.90
15160;DHT22;7680;48.800;9.680;2023-04-03T06:24:20;3.70;99.90
15160;DHT22;7680;48.800;9.680;2023-04-03T06:26:55;3.70;99.90
15160;DHT22;7680;48.800;9.680;2023-04-03T06:29:28;3.50;99.90
15160;DHT22;7680;48.800;9.680;2023-04-03T06:32:01;3.60;99.90
15160;DHT22;7680;48.800;9.680;2023-04-03T06:34:34;3.60;99.90
15160;DHT22;7680;48.800;9.680;2023-04-03T06:37:10;3.70;99.90
15160;DHT22;7680;48.800;9.680;2023-04-03T06:39:45;3.80;99.90
15160;DHT22;7680;48.800;9.680;2023-04-03T06:42:19;4.00;99.90
15160;DHT22;7680;48.800;9.680;2023-04-03T06:44:52;4.00;99.90
15160;DHT22;7680;48.800;9.680;2023-04-03T06:47:25;4.10;99.90
15160;DHT22;7680;48.800;9.680;2023-04-03T06:49:58;4.10;99.90
15160;DHT22;7680;48.800;9.680;2023-04-03T06:52:31;4.10;99.90
15160;DHT22;7680;48.800;9.680;2023-04-03T06:55:07;4.30;99.90
15160;DHT22;7680;48.800;9.680;2023-04-03T06:57:40;4.20;99.90
15160;DHT22;7680;48.800;9.680;2023-04-03T07:00:14;4.30;99.90
15160;DHT22;7680;48.800;9.680;2023-04-03T07:02:48;4.40;99.90
15160;DHT22;7680;48.800;9.680;2023-04-03T07:05:21;4.20;99.90
15160;DHT22;7680;48.800;9.680;2023-04-03T07:07:54;4.30;99.90
15160;DHT22;7680;48.800;9.680;2023-04-03T07:10:29;4.30;99.90
15160;DHT22;7680;48.800;9.680;2023-04-03T07:13:02;4.30;99.90
15160;DHT22;7680;48.800;9.680;2023-04-03T07:15:35;4.30;99.90
15160;DHT22;7680;48.800;9.680;2023-04-03T07:18:08;4.40;99.90
15160;DHT22;7680;48.800;9.680;2023-04-03T07:20:42;4.30;99.90
15160;DHT22;7680;48.800;9.680;2023-04-03T07:23:15;4.30;99.90
15160;DHT22;7680;48.800;9.680;2023-04-03T07:25:51;4.30;99.90
15160;DHT22;7680;48.800;9.680;2023-04-03T07:28:24;4.50;99.90
15160;DHT22;7680;48.800;9.680;2023-04-03T07:31:01;4.40;99.90
15160;DHT22;7680;48.800;9.680;2023-04-03T07:33:37;4.30;99.90
15160;DHT22;7680;48.800;9.680;2023-04-03T07:36:11;4.30;99.90
15160;DHT22;7680;48.800;9.680;2023-04-03T07:38:47;4.40;99.90
15160;DHT22;7680;48.800;9.680;2023-04-03T07:41:22;4.50;99.90
15160;DHT22;7680;48.800;9.680;2023-04-03T07:43:55;4.60;99.90
15160;DHT22;7680;48.800;9.680;2023-04-03T07:46:28;4.70;99.90
15160;DHT22;7680;48.800;9.680;2023-04-03T07:49:01;4.50;99.90
15160;DHT22;7680;48.800;9.680;2023-04-03T07:51:34;4.80;99.90
15160;DHT22;7680;48.800;9.680;2023-04-03T07:54:09;4.80;99.90
15160;DHT22;7680;48.800;9.680;2023-04-03T07:56:44;4.90;99.90
15160;DHT22;7680;48.800;9.680;2023-04-03T07:59:17;4.80;99.90
15160;DHT22;7680;48.800;9.680;2023-04-03T08:01:50;4.70;99.90
15160;DHT22;7680;48.800;9.680;2023-04-03T08:04:23;5.10;99.90
15160;DHT22;7680;48.800;9.680;2023-04-03T08:06:56;5.10;99.90
15160;DHT22;7680;48.800;9.680;2023-04-03T08:09:29;5.00;99.90
15160;DHT22;7680;48.800;9.680;2023-04-03T08:12:04;5.20;99.90
15160;DHT22;7680;48.800;9.680;2023-04-03T08:14:37;5.20;99.90
15160;DHT22;7680;48.800;9.680;2023-04-03T08:17:10;5.40;99.90
15160;DHT22;7680;48.800;9.680;2023-04-03T08:19:44;5.40;99.90
15160;DHT22;7680;48.800;9.680;2023-04-03T08:22:17;5.60;99.90
15160;DHT22;7680;48.800;9.680;2023-04-03T08:24:50;5.50;99.90
15160;DHT22;7680;48.800;9.680;2023-04-03T08:27:31;5.80;99.90
15160;DHT22;7680;48.800;9.680;2023-04-03T08:30:05;5.80;99.90
15160;DHT22;7680;48.800;9.680;2023-04-03T08:32:40;5.90;99.90
15160;DHT22;7680;48.800;9.680;2023-04-03T08:35:14;5.90;99.90
15160;DHT22;7680;48.800;9.680;2023-04-03T08:37:47;6.00;99.90
15160;DHT22;7680;48.800;9.680;2023-04-03T08:40:21;6.10;99.90
15160;DHT22;7680;48.800;9.680;2023-04-03T08:43:08;6.00;99.90
15160;DHT22;7680;48.800;9.680;2023-04-03T08:45:55;5.80;99.90
15160;DHT22;7680;48.800;9.680;2023-04-03T08:48:33;5.70;99.90
15160;DHT22;7680;48.800;9.680;2023-04-03T08:51:12;5.70;99.90
15160;DHT22;7680;48.800;9.680;2023-04-03T08:53:55;5.70;99.90
15160;DHT22;7680;48.800;9.680;2023-04-03T08:56:30;5.80;99.90
15160;DHT22;7680;48.800;9.680;2023-04-03T08:59:12;6.00;99.90
15160;DHT22;7680;48.800;9.680;2023-04-03T09:01:47;6.00;99.90
15160;DHT22;7680;48.800;9.680;2023-04-03T09:04:20;6.10;99.90
15160;DHT22;7680;48.800;9.680;2023-04-03T09:06:56;6.30;99.90
15160;DHT22;7680;48.800;9.680;2023-04-03T09:09:33;6.50;99.90
15160;DHT22;7680;48.800;9.680;2023-04-03T09:12:15;6.60;99.90
15160;DHT22;7680;48.800;9.680;2023-04-03T09:14:58;6.70;99.90
15160;DHT22;7680;48.800;9.680;2023-04-03T09:17:41;6.40;99.90
15160;DHT22;7680;48.800;9.680;2023-04-03T09:20:21;6.40;99.90
15160;DHT22;7680;48.800;9.680;2023-04-03T09:22:57;6.70;99.90
15160;DHT22;7680;48.800;9.680;2023-04-03T09:25:32;6.60;99.90
15160;DHT22;7680;48.800;9.680;2023-04-03T09:28:06;6.40;99.90
15160;DHT22;7680;48.800;9.680;2023-04-03T09:30:43;6.40;99.90
15160;DHT22;7680;48.800;9.680;2023-04-03T09:33:17;6.50;99.90
15160;DHT22;7680;48.800;9.680;2023-04-03T09:35:50;6.40;99.90
15160;DHT22;7680;48.800;9.680;2023-04-03T09:38:23;6.50;99.90
15160;DHT22;7680;48.800;9.680;2023-04-03T09:41:05;6.70;99.90
15160;DHT22;7680;48.800;9.680;2023-04-03T09:43:39;6.70;99.90
15160;DHT22;7680;48.800;9.680;2023-04-03T09:46:20;6.90;99.90
15160;DHT22;7680;48.800;9.680;2023-04-03T09:49:00;6.90;99.90
15160;DHT22;7680;48.800;9.680;2023-04-03T09:51:40;6.70;99.90
15160;DHT22;7680;48.800;9.680;2023-04-03T09:54:32;6.90;99.90
15160;DHT22;7680;48.800;9.680;2023-04-03T09:57:11;6.50;99.90
15160;DHT22;7680;48.800;9.680;2023-04-03T09:59:47;6.40;99.90
15160;DHT22;7680;48.800;9.680;2023-04-03T10:02:36;6.30;99.90
15160;DHT22;7680;48.800;9.680;2023-04-03T10:05:29;6.30;99.90
15160;DHT22;7680;48.800;9.680;2023-04-03T10:08:22;6.30;99.90
15160;DHT22;7680;48.800;9.680;2023-04-03T10:11:09;6.20;99.90
15160;DHT22;7680;48.800;9.680;2023-04-03T10:13:51;6.10;99.90
15160;DHT22;7680;48.800;9.680;2023-04-03T10:16:41;6.10;99.50
15160;DHT22;7680;48.800;9.680;2023-04-03T10:19:32;6.00;99.90
15160;DHT22;7680;48.800;9.680;2023-04-03T10:22:16;6.10;99.90
15160;DHT22;7680;48.800;9.680;2023-04-03T10:25:01;6.30;99.90
15160;DHT22;7680;48.800;9.680;2023-04-03T10:27:44;6.50;99.90
15160;DHT22;7680;48.800;9.680;2023-04-03T10:30:36;6.50;99.90
15160;DHT22;7680;48.800;9.680;2023-04-03T10:33:28;6.40;98.30
15160;DHT22;7680;48.800;9.680;2023-04-03T10:36:20;6.50;99.00
15160;DHT22;7680;48.800;9.680;2023-04-03T10:39:02;6.60;98.00
15160;DHT22;7680;48.800;9.680;2023-04-03T10:41:52;6.40;95.30
15160;DHT22;7680;48.800;9.680;2023-04-03T10:45:07;6.20;94.30
15160;DHT22;7680;48.800;9.680;2023-04-03T10:47:56;6.30;93.80
15160;DHT22;7680;48.800;9.680;2023-04-03T10:50:40;6.30;94.30
15160;DHT22;7680;48.800;9.680;2023-04-03T10:53:22;6.20;94.80
15160;DHT22;7680;48.800;9.680;2023-04-03T10:56:02;6.20;96.00
15160;DHT22;7680;48.800;9.680;2023-04-03T10:58:40;6.30;95.20
15160;DHT22;7680;48.800;9.680;2023-04-03T11:01:19;6.30;95.60
15160;DHT22;7680;48.800;9.680;2023-04-03T11:03:57;6.40;96.80
15160;DHT22;7680;48.800;9.680;2023-04-03T11:06:34;6.50;96.60
15160;DHT22;7680;48.800;9.680;2023-04-03T11:09:19;6.60;96.00
15160;DHT22;7680;48.800;9.680;2023-04-03T11:11:58;6.60;96.10
15160;DHT22;7680;48.800;9.680;2023-04-03T11:14:36;6.70;97.00
15160;DHT22;7680;48.800;9.680;2023-04-03T11:17:21;6.80;95.80
15160;DHT22;7680;48.800;9.680;2023-04-03T11:20:03;6.80;95.30
15160;DHT22;7680;48.800;9.680;2023-04-03T11:22:41;6.60;95.20
15160;DHT22;7680;48.800;9.680;2023-04-03T11:25:20;6.30;95.40
15160;DHT22;7680;48.800;9.680;2023-04-03T11:27:58;6.30;96.00
15160;DHT22;7680;48.800;9.680;2023-04-03T11:30:37;6.60;96.70
15160;DHT22;7680;48.800;9.680;2023-04-03T11:33:21;6.80;96.10
15160;DHT22;7680;48.800;9.680;2023-04-03T11:36:11;6.90;94.70
15160;DHT22;7680;48.800;9.680;2023-04-03T11:39:02;6.40;94.60
15160;DHT22;7680;48.800;9.680;2023-04-03T11:41:43;6.60;95.10
15160;DHT22;7680;48.800;9.680;2023-04-03T11:44:32;6.80;94.70
15160;DHT22;7680;48.800;9.680;2023-04-03T11:47:09;6.90;94.60
15160;DHT22;7680;48.800;9.680;2023-04-03T11:49:57;7.00;95.60
15160;DHT22;7680;48.800;9.680;2023-04-03T11:53:00;7.00;95.30
15160;DHT22;7680;48.800;9.680;2023-04-03T11:55:48;7.00;94.80
15160;DHT22;7680;48.800;9.680;2023-04-03T11:58:30;7.00;94.40
15160;DHT22;7680;48.800;9.680;2023-04-03T12:01:08;7.00;94.30
15160;DHT22;7680;48.800;9.680;2023-04-03T12:04:03;6.90;94.20
15160;DHT22;7680;48.800;9.680;2023-04-03T12:06:53;7.00;94.40
15160;DHT22;7680;48.800;9.680;2023-04-03T12:13:15;7.30;94.90
15160;DHT22;7680;48.800;9.680;2023-04-03T12:15:53;7.50;92.60
15160;DHT22;7680;48.800;9.680;2023-04-03T12:18:59;7.30;92.40
15160;DHT22;7680;48.800;9.680;2023-04-03T12:22:06;7.40;93.00
15160;DHT22;7680;48.800;9.680;2023-04-03T12:24:42;7.30;92.40
15160;DHT22;7680;48.800;9.680;2023-04-03T12:27:26;7.40;93.10
15160;DHT22;7680;48.800;9.680;2023-04-03T12:30:07;7.60;94.10
15160;DHT22;7680;48.800;9.680;2023-04-03T12:36:03;7.50;93.60
15160;DHT22;7680;48.800;9.680;2023-04-03T12:38:58;7.50;94.30
15160;DHT22;7680;48.800;9.680;2023-04-03T12:41:38;7.30;92.40
15160;DHT22;7680;48.800;9.680;2023-04-03T12:44:27;7.20;92.60
15160;DHT22;7680;48.800;9.680;2023-04-03T12:47:22;7.30;93.10
15160;DHT22;7680;48.800;9.680;2023-04-03T12:50:00;7.40;92.70
15160;DHT22;7680;48.800;9.680;2023-04-03T12:52:39;7.30;92.20
15160;DHT22;7680;48.800;9.680;2023-04-03T12:55:15;7.50;92.90
15160;DHT22;7680;48.800;9.680;2023-04-03T12:57:49;7.70;91.10
15160;DHT22;7680;48.800;9.680;2023-04-03T13:00:31;7.60;91.20
15160;DHT22;7680;48.800;9.680;2023-04-03T13:03:06;7.30;91.30
15160;DHT22;7680;48.800;9.680;2023-04-03T13:05:59;7.00;92.00
15160;DHT22;7680;48.800;9.680;2023-04-03T13:08:34;7.10;91.70
15160;DHT22;7680;48.800;9.680;2023-04-03T13:11:10;7.00;92.20
15160;DHT22;7680;48.800;9.680;2023-04-03T13:13:55;6.90;92.60
15160;DHT22;7680;48.800;9.680;2023-04-03T13:16:29;7.00;92.20
15160;DHT22;7680;48.800;9.680;2023-04-03T13:19:03;6.90;91.60
15160;DHT22;7680;48.800;9.680;2023-04-03T13:21:37;6.90;91.60
15160;DHT22;7680;48.800;9.680;2023-04-03T13:24:11;7.10;92.40
15160;DHT22;7680;48.800;9.680;2023-04-03T13:26:46;7.20;92.90
15160;DHT22;7680;48.800;9.680;2023-04-03T13:29:23;7.10;92.00
15160;DHT22;7680;48.800;9.680;2023-04-03T13:32:03;7.20;92.00
15160;DHT22;7680;48.800;9.680;2023-04-03T13:34:41;7.20;90.50
15160;DHT22;7680;48.800;9.680;2023-04-03T13:37:24;7.30;90.50
15160;DHT22;7680;48.800;9.680;2023-04-03T13:40:02;7.30;90.30
15160;DHT22;7680;48.800;9.680;2023-04-03T13:42:42;7.40;90.20
15160;DHT22;7680;48.800;9.680;2023-04-03T13:45:19;7.10;90.00
15160;DHT22;7680;48.800;9.680;2023-04-03T13:48:10;7.20;90.70
15160;DHT22;7680;48.800;9.680;2023-04-03T13:50:56;7.10;90.40
15160;DHT22;7680;48.800;9.680;2023-04-03T13:53:33;7.00;90.20
15160;DHT22;7680;48.800;9.680;2023-04-03T13:56:09;7.10;91.50
15160;DHT22;7680;48.800;9.680;2023-04-03T13:59:04;7.10;90.30
15160;DHT22;7680;48.800;9.680;2023-04-03T14:01:53;7.10;91.20
15160;DHT22;7680;48.800;9.680;2023-04-03T14:04:29;7.10;91.80
15160;DHT22;7680;48.800;9.680;2023-04-03T14:07:04;7.00;91.90
15160;DHT22;7680;48.800;9.680;2023-04-03T14:09:39;7.10;92.20
15160;DHT22;7680;48.800;9.680;2023-04-03T14:12:16;7.10;92.10
15160;DHT22;7680;48.800;9.680;2023-04-03T14:15:06;7.10;92.00
15160;DHT22;7680;48.800;9.680;2023-04-03T14:17:47;7.00;91.40
15160;DHT22;7680;48.800;9.680;2023-04-03T14:20:26;6.90;90.80
15160;DHT22;7680;48.800;9.680;2023-04-03T14:22:59;6.70;91.20
15160;DHT22;7680;48.800;9.680;2023-04-03T14:25:34;6.80;91.10
15160;DHT22;7680;48.800;9.680;2023-04-03T14:28:15;7.00;92.30
15160;DHT22;7680;48.800;9.680;2023-04-03T14:30:50;7.30;90.30
15160;DHT22;7680;48.800;9.680;2023-04-03T14:33:23;7.40;87.90
15160;DHT22;7680;48.800;9.680;2023-04-03T14:35:58;7.60;89.50
15160;DHT22;7680;48.800;9.680;2023-04-03T14:38:32;7.50;89.10
15160;DHT22;7680;48.800;9.680;2023-04-03T14:41:06;7.70;87.20
15160;DHT22;7680;48.800;9.680;2023-04-03T14:43:48;7.80;87.50
15160;DHT22;7680;48.800;9.680;2023-04-03T14:46:25;7.80;87.80
15160;DHT22;7680;48.800;9.680;2023-04-03T14:49:21;7.50;87.70
15160;DHT22;7680;48.800;9.680;2023-04-03T14:51:55;7.60;87.30
15160;DHT22;7680;48.800;9.680;2023-04-03T14:54:28;7.40;88.20
15160;DHT22;7680;48.800;9.680;2023-04-03T14:57:08;7.20;87.40
15160;DHT22;7680;48.800;9.680;2023-04-03T14:59:42;7.00;89.60
15160;DHT22;7680;48.800;9.680;2023-04-03T15:02:26;6.90;89.20
15160;DHT22;7680;48.800;9.680;2023-04-03T15:05:02;6.90;90.10
15160;DHT22;7680;48.800;9.680;2023-04-03T15:07:38;6.90;91.00
15160;DHT22;7680;48.800;9.680;2023-04-03T15:10:18;7.20;91.10
15160;DHT22;7680;48.800;9.680;2023-04-03T15:12:54;7.30;90.50
15160;DHT22;7680;48.800;9.680;2023-04-03T15:15:29;7.30;90.20
15160;DHT22;7680;48.800;9.680;2023-04-03T15:18:02;7.30;90.20
15160;DHT22;7680;48.800;9.680;2023-04-03T15:20:36;7.50;89.70
15160;DHT22;7680;48.800;9.680;2023-04-03T15:23:11;7.40;88.60
15160;DHT22;7680;48.800;9.680;2023-04-03T15:25:48;7.30;90.10
15160;DHT22;7680;48.800;9.680;2023-04-03T15:28:26;7.20;89.20
15160;DHT22;7680;48.800;9.680;2023-04-03T15:31:02;7.20;90.20
15160;DHT22;7680;48.800;9.680;2023-04-03T15:33:36;7.20;90.10
15160;DHT22;7680;48.800;9.680;2023-04-03T15:36:09;7.10;90.50
15160;DHT22;7680;48.800;9.680;2023-04-03T15:39:03;7.00;89.30
15160;DHT22;7680;48.800;9.680;2023-04-03T15:41:36;6.90;89.10
15160;DHT22;7680;48.800;9.680;2023-04-03T15:44:10;6.90;88.10
15160;DHT22;7680;48.800;9.680;2023-04-03T15:46:44;6.90;90.00
15160;DHT22;7680;48.800;9.680;2023-04-03T15:49:19;7.00;87.90
15160;DHT22;7680;48.800;9.680;2023-04-03T15:51:53;7.00;88.00
15160;DHT22;7680;48.800;9.680;2023-04-03T15:54:27;7.00;89.70
15160;DHT22;7680;48.800;9.680;2023-04-03T15:57:01;7.10;88.70
15160;DHT22;7680;48.800;9.680;2023-04-03T15:59:35;7.00;88.50
15160;DHT22;7680;48.800;9.680;2023-04-03T16:02:10;6.90;86.00
15160;DHT22;7680;48.800;9.680;2023-04-03T16:04:45;6.80;86.00
15160;DHT22;7680;48.800;9.680;2023-04-03T16:07:18;6.80;85.30
15160;DHT22;7680;48.800;9.680;2023-04-03T16:09:51;6.60;85.30
15160;DHT22;7680;48.800;9.680;2023-04-03T16:12:25;6.60;86.90
15160;DHT22;7680;48.800;9.680;2023-04-03T16:14:59;6.60;85.80
15160;DHT22;7680;48.800;9.680;2023-04-03T16:17:32;6.70;86.80
15160;DHT22;7680;48.800;9.680;2023-04-03T16:20:08;6.70;88.00
15160;DHT22;7680;48.800;9.680;2023-04-03T16:22:42;6.60;88.50
15160;DHT22;7680;48.800;9.680;2023-04-03T16:25:17;6.60;88.60
15160;DHT22;7680;48.800;9.680;2023-04-03T16:27:50;6.60;90.00
15160;DHT22;7680;48.800;9.680;2023-04-03T16:30:24;6.70;91.70
15160;DHT22;7680;48.800;9.680;2023-04-03T16:32:58;6.70;90.10
15160;DHT22;7680;48.800;9.680;2023-04-03T16:35:31;6.80;90.20
15160;DHT22;7680;48.800;9.680;2023-04-03T16:38:04;6.80;89.30
15160;DHT22;7680;48.800;9.680;2023-04-03T16:40:37;6.90;88.00
15160;DHT22;7680;48.800;9.680;2023-04-03T16:43:11;6.80;88.90
15160;DHT22;7680;48.800;9.680;2023-04-03T16:45:45;6.80;88.80
15160;DHT22;7680;48.800;9.680;2023-04-03T16:48:18;6.70;88.10
15160;DHT22;7680;48.800;9.680;2023-04-03T16:50:51;6.50;88.10
15160;DHT22;7680;48.800;9.680;2023-04-03T16:53:25;6.40;88.30
15160;DHT22;7680;48.800;9.680;2023-04-03T16:55:59;6.50;88.80
15160;DHT22;7680;48.800;9.680;2023-04-03T16:58:32;6.40;89.00
15160;DHT22;7680;48.800;9.680;2023-04-03T17:01:11;6.30;89.80
15160;DHT22;7680;48.800;9.680;2023-04-03T17:03:45;6.20;89.90
15160;DHT22;7680;48.800;9.680;2023-04-03T17:06:20;6.10;90.10
15160;DHT22;7680;48.800;9.680;2023-04-03T17:08:54;6.10;90.30
15160;DHT22;7680;48.800;9.680;2023-04-03T17:11:28;6.20;90.70